Alpena, South Dakota
Current Conditions -  °F | °C
As of 11:55 PM on Wednesday 17 Dec 2014 (Local Time) from KHON Reporting Station
Overcast Overcast  
Wind Chill:   Ceiling: 10000
Heat Index: 13°   Visibility: 10mi
Dew Point: 10°   Wind: 8mph
Humidity: 88%   Direction: 160°SSE
Pressure: 30.26"   Gusts: NA
Location:  44.18°N, 98.37°W
Report Text: KHON 180555Z AUTO 16007KT 10SM SCT070 OVC100 M11/M12 A3026 RMK AO2 SLP275 I6000 T11061122 11106 21133 410941194 53001
Loading
Personal Weather Stations






























Interactive Weather Map New forecast layout! Learn more

10-Day Weather Forecast

Advertisements
Track Severe Weather on mobile